Terminal Aerodrome Forecast
Issued by NWS Jacksonville, FL

Home | Current Version | Previous Version | Text Only | Print | Product List | Glossary On
Versions: 1 2 3 4 5 6 7 8 9 10 11 12 13 14 15 16 17 18 19 20 21 22 23 24 25 26
000
FTUS42 KJAX 172204 AAC
TAFSSI
TAF AMD
KSSI 172204Z 1722/1818 14007KT P6SM FEW045 BKN060
      TEMPO 1722/1724 6SM BR SCT004
     FM180000 19004KT P6SM FEW010 SCT050
     FM181000 24003KT 1SM BR BKN003
     FM181430 26003KT 4SM BR BKN008
     FM181630 04006KT P6SM SCT010 BKN035=

USA.gov is the U.S. government's official web portal to all federal, state and local government web resources and services.